Time;durP1;ratioP1;P1;durP2;ratioP2;P2;SDS_P1;SDS_P2;PMS_P1;PMS_P2;Temp;Humidity;BMP_temperature;BMP_pressure;BME280_temperature;BME280_humidity;BME280_pressure;Samples;Min_cycle;Max_cycle;Signal;HPM_P1;HPM_P2
2021/03/13 00:01:12;;;;;;;3.67;1.40;;;15.80;57.80;;;;;;5034783;28;20032;-76
2021/03/13 00:03:37;;;;;;;6.38;1.38;;;15.80;57.80;;;;;;5052880;28;20036;-77
2021/03/13 00:06:03;;;;;;;4.45;1.30;;;15.80;57.70;;;;;;5052846;28;20029;-76
2021/03/13 00:08:30;;;;;;;5.15;1.40;;;15.70;57.70;;;;;;5052775;28;20013;-76
2021/03/13 00:10:55;;;;;;;2.65;1.02;;;15.70;57.90;;;;;;5052687;28;20040;-77
2021/03/13 00:13:21;;;;;;;7.53;1.90;;;15.70;57.90;;;;;;5034944;28;20021;-78
2021/03/13 00:15:47;;;;;;;4.90;1.45;;;15.60;57.90;;;;;;5052270;28;20104;-77
2021/03/13 00:18:13;;;;;;;4.93;1.35;;;15.60;57.90;;;;;;5052413;28;20433;-76
2021/03/13 00:20:41;;;;;;;4.00;1.35;;;15.70;58.00;;;;;;5052563;28;20508;-76
2021/03/13 00:23:07;;;;;;;5.43;1.50;;;15.60;58.00;;;;;;5052071;28;20415;-77
2021/03/13 00:25:34;;;;;;;3.97;1.00;;;15.60;58.00;;;;;;5052560;28;20552;-76
2021/03/13 00:28:00;;;;;;;3.17;1.27;;;15.60;58.40;;;;;;5052186;28;20104;-77
2021/03/13 00:30:34;;;;;;;6.53;1.40;;;15.50;58.20;;;;;;5052541;28;20061;-76
2021/03/13 00:33:03;;;;;;;3.13;1.00;;;15.50;58.20;;;;;;5052133;28;20477;-77
2021/03/13 00:35:30;;;;;;;5.57;1.73;;;15.50;58.10;;;;;;5052358;28;20108;-77
2021/03/13 00:37:57;;;;;;;4.88;1.30;;;15.50;58.20;;;;;;5052217;28;20485;-76
2021/03/13 00:40:25;;;;;;;4.75;1.35;;;15.40;58.20;;;;;;5052123;28;20051;-76
2021/03/13 00:42:51;;;;;;;3.92;1.52;;;15.40;58.40;;;;;;5052307;28;20040;-76
2021/03/13 00:45:20;;;;;;;5.97;1.10;;;15.40;58.50;;;;;;5051378;28;20087;-77
2021/03/13 00:47:46;;;;;;;2.90;1.10;;;15.30;58.50;;;;;;5051287;28;20013;-76
2021/03/13 00:50:13;;;;;;;3.70;1.00;;;15.30;58.50;;;;;;5052030;28;20032;-76
2021/03/13 00:52:39;;;;;;;5.10;1.63;;;15.30;58.50;;;;;;5052134;28;20041;-77
2021/03/13 00:55:07;;;;;;;6.63;1.48;;;15.30;58.50;;;;;;5052131;28;20021;-77
2021/03/13 00:57:33;;;;;;;4.97;1.52;;;15.30;58.40;;;;;;5051753;28;20039;-77
2021/03/13 00:59:58;;;;;;;8.00;1.77;;;15.30;58.50;;;;;;5051927;28;20104;-76
2021/03/13 01:02:24;;;;;;;5.05;1.00;;;15.30;58.70;;;;;;5051774;28;20025;-76
2021/03/13 01:04:50;;;;;;;4.50;1.08;;;15.30;58.60;;;;;;5051758;28;20041;-76
2021/03/13 01:07:16;;;;;;;5.60;1.25;;;15.20;58.70;;;;;;5051865;28;20017;-76
2021/03/13 01:09:42;;;;;;;6.70;1.35;;;15.20;58.60;;;;;;5051841;28;20040;-76
2021/03/13 01:12:08;;;;;;;4.00;1.50;;;15.20;58.80;;;;;;5033889;28;20028;-76
2021/03/13 01:14:34;;;;;;;4.57;1.00;;;15.10;58.80;;;;;;5051033;28;20033;-76
2021/03/13 01:17:00;;;;;;;5.18;1.15;;;15.10;58.90;;;;;;5051471;28;20024;-77
2021/03/13 01:19:26;;;;;;;4.28;1.48;;;15.10;59.00;;;;;;5051110;28;20412;-77
2021/03/13 01:21:52;;;;;;;6.15;1.60;;;15.10;59.10;;;;;;5051750;28;20013;-76
2021/03/13 01:24:17;;;;;;;6.00;1.17;;;15.00;59.10;;;;;;5051589;28;20447;-76
2021/03/13 01:26:43;;;;;;;3.47;1.00;;;15.00;59.00;;;;;;5051401;28;20085;-76
2021/03/13 01:29:09;;;;;;;4.13;1.02;;;15.00;59.10;;;;;;5051607;28;20370;-76
2021/03/13 01:31:34;;;;;;;5.53;1.85;;;15.00;59.10;;;;;;5051633;28;20460;-76
2021/03/13 01:34:00;;;;;;;5.32;1.20;;;15.00;59.20;;;;;;5033551;28;20033;-76
2021/03/13 01:36:25;;;;;;;4.53;1.50;;;15.00;59.30;;;;;;5054552;28;20032;-75
2021/03/13 01:38:52;;;;;;;6.35;1.15;;;14.90;59.30;;;;;;5055619;28;20052;-75
2021/03/13 01:41:18;;;;;;;3.92;1.08;;;14.90;59.30;;;;;;5055232;28;20021;-75
2021/03/13 01:43:43;;;;;;;6.03;1.52;;;14.90;59.30;;;;;;5055241;28;20071;-76
2021/03/13 01:46:09;;;;;;;4.70;1.30;;;14.90;59.40;;;;;;5055239;28;20504;-76
2021/03/13 01:48:39;;;;;;;3.65;1.15;;;14.90;59.50;;;;;;5037419;28;20143;-76
2021/03/13 01:51:05;;;;;;;4.32;1.30;;;14.90;59.60;;;;;;5055323;28;20055;-75
2021/03/13 01:53:31;;;;;;;5.47;0.80;;;14.80;59.50;;;;;;5055457;28;20033;-75
2021/03/13 01:55:56;;;;;;;3.85;1.08;;;14.80;59.70;;;;;;5055327;28;20429;-75
2021/03/13 01:58:22;;;;;;;5.15;1.25;;;14.80;59.70;;;;;;5054869;28;20035;-74
2021/03/13 02:00:47;;;;;;;3.28;0.90;;;14.80;59.80;;;;;;5055180;28;20155;-75
2021/03/13 02:03:13;;;;;;;4.65;1.02;;;14.80;59.90;;;;;;5055369;28;20244;-76
2021/03/13 02:05:43;;;;;;;7.63;1.20;;;14.80;59.90;;;;;;5037406;28;20120;-75
2021/03/13 02:08:49;;;;;;;3.72;1.00;;;14.70;60.00;;;;;;5054026;28;20037;-75
2021/03/13 02:11:27;;;;;;;4.85;1.05;;;14.70;60.00;;;;;;5055172;28;20044;-76
2021/03/13 02:13:59;;;;;;;4.68;1.15;;;14.70;60.00;;;;;;5054687;28;20435;-75
2021/03/13 02:16:43;;;;;;;5.15;1.08;;;14.70;60.20;;;;;;5054558;28;20408;-75
2021/03/13 02:19:46;;;;;;;5.57;1.30;;;14.70;60.30;;;;;;5052962;28;20029;-76
2021/03/13 02:22:14;;;;;;;5.38;1.45;;;14.70;60.40;;;;;;5055235;28;20029;-75
2021/03/13 02:25:05;;;;;;;5.75;1.15;;;14.70;60.50;;;;;;5055096;28;20115;-76
2021/03/13 02:27:40;;;;;;;5.80;1.20;;;14.60;60.50;;;;;;5044964;28;20044;-76
2021/03/13 02:30:21;;;;;;;4.82;1.30;;;14.60;60.60;;;;;;5054688;28;20104;-76
2021/03/13 02:32:56;;;;;;;5.32;1.20;;;14.60;60.60;;;;;;5054598;28;20432;-76
2021/03/13 02:35:28;;;;;;;6.47;1.30;;;14.60;60.70;;;;;;5054518;28;20032;-75
2021/03/13 02:37:59;;;;;;;5.57;1.20;;;14.60;60.80;;;;;;5054406;28;20029;-75
2021/03/13 02:40:28;;;;;;;7.90;1.75;;;14.60;61.00;;;;;;5054644;28;20037;-76
2021/03/13 02:42:56;;;;;;;4.55;1.23;;;14.60;61.10;;;;;;5054376;28;20018;-75
2021/03/13 02:45:28;;;;;;;4.88;1.17;;;14.60;61.10;;;;;;5054074;28;20037;-76
2021/03/13 02:47:55;;;;;;;6.28;1.83;;;14.50;61.10;;;;;;5054011;28;20041;-76
2021/03/13 02:50:21;;;;;;;7.60;1.45;;;14.50;61.90;;;;;;5054401;28;20107;-75
2021/03/13 02:52:50;;;;;;;6.97;1.30;;;14.50;61.20;;;;;;5054476;28;20053;-75
2021/03/13 02:55:16;;;;;;;6.15;1.17;;;14.50;61.30;;;;;;5054433;28;20021;-75
2021/03/13 02:57:45;;;;;;;6.90;1.52;;;14.50;61.40;;;;;;5054335;28;20029;-75
2021/03/13 03:00:15;;;;;;;5.85;1.50;;;14.50;61.50;;;;;;5053805;28;20013;-75
2021/03/13 03:02:42;;;;;;;5.03;1.45;;;14.50;61.60;;;;;;5034222;28;20057;-76
2021/03/13 03:05:08;;;;;;;3.88;1.17;;;14.40;61.60;;;;;;5032506;28;20048;-75
2021/03/13 03:07:34;;;;;;;4.28;1.00;;;14.50;61.70;;;;;;5047359;28;20052;-75
2021/03/13 03:10:01;;;;;;;5.72;1.52;;;14.40;61.70;;;;;;5053927;28;20068;-75
2021/03/13 03:12:28;;;;;;;5.57;1.80;;;14.50;61.80;;;;;;5053990;28;20017;-75
2021/03/13 03:14:57;;;;;;;6.07;1.20;;;14.50;61.50;;;;;;5036117;28;20029;-76
2021/03/13 03:17:25;;;;;;;6.60;1.15;;;14.50;61.80;;;;;;5053674;28;20488;-75
2021/03/13 03:19:55;;;;;;;6.97;1.38;;;14.50;62.00;;;;;;5053463;28;20028;-76
2021/03/13 03:22:22;;;;;;;6.00;1.05;;;14.50;61.90;;;;;;5053689;28;20033;-76
2021/03/13 03:24:48;;;;;;;5.35;1.20;;;14.40;62.00;;;;;;5053971;28;20036;-76
2021/03/13 03:27:14;;;;;;;5.45;1.20;;;14.40;62.00;;;;;;5054011;28;20021;-75
2021/03/13 03:29:40;;;;;;;3.50;1.10;;;14.50;61.90;;;;;;5053619;28;20028;-75
2021/03/13 03:32:06;;;;;;;2.90;1.00;;;14.40;61.90;;;;;;5052738;28;20496;-76
2021/03/13 03:34:32;;;;;;;5.60;1.02;;;14.40;62.10;;;;;;5053123;28;20492;-76
2021/03/13 03:36:57;;;;;;;5.43;1.20;;;14.40;62.40;;;;;;5053428;28;20083;-76
2021/03/13 03:39:23;;;;;;;6.20;1.23;;;14.40;62.30;;;;;;5053576;28;20090;-76
2021/03/13 03:41:52;;;;;;;3.92;0.98;;;14.30;62.20;;;;;;5053428;28;20388;-76
2021/03/13 03:44:27;;;;;;;5.50;1.17;;;14.30;62.30;;;;;;5053368;28;20036;-75
2021/03/13 03:47:00;;;;;;;4.25;1.40;;;14.30;62.70;;;;;;5053419;28;20024;-75
2021/03/13 03:49:27;;;;;;;4.47;1.05;;;14.30;62.80;;;;;;5052982;28;20547;-75
2021/03/13 03:51:54;;;;;;;4.43;0.95;;;14.30;62.90;;;;;;5053024;28;20542;-74
2021/03/13 03:54:21;;;;;;;6.85;1.00;;;14.30;63.10;;;;;;5053054;28;20025;-75
2021/03/13 03:56:47;;;;;;;4.00;0.95;;;14.30;63.10;;;;;;5053497;28;20032;-75
2021/03/13 03:59:17;;;;;;;6.97;1.33;;;14.30;63.10;;;;;;5034070;28;20060;-76
2021/03/13 04:01:49;;;;;;;6.15;1.50;;;14.20;63.20;;;;;;5052482;28;20466;-76
2021/03/13 04:04:20;;;;;;;4.60;1.33;;;14.30;63.30;;;;;;5052572;28;20033;-75
2021/03/13 04:06:47;;;;;;;6.00;1.45;;;14.30;63.50;;;;;;5053166;28;20021;-75
2021/03/13 04:09:14;;;;;;;5.75;1.23;;;14.30;63.50;;;;;;5034813;28;20116;-76
2021/03/13 04:11:41;;;;;;;5.40;1.33;;;14.30;63.60;;;;;;5052579;28;20074;-75
2021/03/13 04:14:08;;;;;;;4.32;1.10;;;14.20;63.60;;;;;;5052691;28;20029;-76
2021/03/13 04:16:34;;;;;;;7.25;1.33;;;14.20;63.70;;;;;;5052733;28;20025;-76
2021/03/13 04:19:00;;;;;;;6.00;1.30;;;14.20;63.80;;;;;;5052575;28;20029;-75
2021/03/13 04:21:28;;;;;;;6.75;1.80;;;14.20;63.80;;;;;;5052391;28;20036;-75
2021/03/13 04:23:54;;;;;;;5.93;1.33;;;14.20;63.80;;;;;;5052507;28;20029;-76
2021/03/13 04:26:21;;;;;;;7.38;1.15;;;14.20;64.00;;;;;;5052791;28;20152;-75
2021/03/13 04:28:48;;;;;;;6.05;1.55;;;14.20;63.90;;;;;;5052708;28;20021;-76
2021/03/13 04:31:16;;;;;;;5.70;1.00;;;14.20;63.90;;;;;;5052191;28;20393;-75
2021/03/13 04:33:42;;;;;;;5.68;1.17;;;14.20;64.30;;;;;;5052457;28;20680;-75
2021/03/13 04:36:10;;;;;;;7.85;1.48;;;14.20;64.30;;;;;;5052399;28;20020;-76
2021/03/13 04:38:37;;;;;;;6.53;1.10;;;14.10;64.30;;;;;;5052102;28;20530;-76
2021/03/13 04:41:04;;;;;;;6.32;0.90;;;14.10;64.50;;;;;;5051708;28;20028;-76
2021/03/13 04:43:31;;;;;;;7.13;1.23;;;14.20;64.20;;;;;;5051667;28;20068;-75
2021/03/13 04:45:59;;;;;;;11.45;1.63;;;14.20;64.50;;;;;;5052213;28;20053;-76
2021/03/13 04:48:31;;;;;;;7.13;1.67;;;14.10;64.40;;;;;;5051929;28;20068;-76
2021/03/13 04:51:02;;;;;;;6.35;1.20;;;14.20;64.50;;;;;;5052118;28;20017;-76
2021/03/13 04:53:28;;;;;;;6.80;1.20;;;14.20;64.60;;;;;;5034157;28;20112;-76
2021/03/13 04:55:54;;;;;;;6.93;1.73;;;14.10;64.50;;;;;;5052140;28;20039;-76
2021/03/13 04:58:20;;;;;;;4.97;1.20;;;14.20;64.60;;;;;;5052173;28;20021;-76
2021/03/13 05:00:46;;;;;;;7.25;1.55;;;14.20;64.60;;;;;;5051566;28;20060;-76
2021/03/13 05:03:13;;;;;;;5.18;1.15;;;14.10;64.40;;;;;;5051685;28;20044;-77
2021/03/13 05:05:39;;;;;;;6.57;1.08;;;14.10;64.40;;;;;;5051655;28;20455;-76
2021/03/13 05:08:05;;;;;;;5.00;1.40;;;14.10;64.50;;;;;;5051871;28;20048;-76
2021/03/13 05:10:31;;;;;;;5.50;0.95;;;14.10;64.50;;;;;;5051833;28;20029;-76
2021/03/13 05:12:57;;;;;;;3.10;0.80;;;14.10;64.30;;;;;;5051679;28;20388;-76
2021/03/13 05:15:23;;;;;;;4.50;0.82;;;14.10;64.60;;;;;;5051902;28;20021;-77
2021/03/13 05:17:50;;;;;;;4.22;0.85;;;14.00;64.60;;;;;;5051679;28;20029;-76
2021/03/13 05:20:15;;;;;;;5.07;1.02;;;14.10;64.60;;;;;;5051400;28;20100;-76
2021/03/13 05:22:44;;;;;;;3.78;0.85;;;14.10;64.50;;;;;;5051386;28;20463;-76
2021/03/13 05:25:10;;;;;;;5.28;1.20;;;14.10;64.50;;;;;;5051533;28;20025;-76
2021/03/13 05:27:39;;;;;;;2.92;0.70;;;14.00;64.40;;;;;;5051537;28;20025;-76
2021/03/13 05:30:06;;;;;;;2.65;0.65;;;14.00;64.40;;;;;;5051324;28;20028;-76
2021/03/13 05:32:32;;;;;;;4.25;0.88;;;14.00;64.60;;;;;;5051556;28;20024;-76
2021/03/13 05:34:58;;;;;;;5.30;1.10;;;14.00;64.50;;;;;;5051567;28;20021;-76
2021/03/13 05:37:24;;;;;;;5.55;1.08;;;14.00;64.50;;;;;;5051727;28;20040;-76
2021/03/13 05:39:49;;;;;;;4.53;0.85;;;14.00;64.40;;;;;;5050960;28;20503;-77
2021/03/13 05:42:16;;;;;;;4.55;1.17;;;14.00;64.30;;;;;;5051444;28;20571;-76
2021/03/13 05:44:43;;;;;;;4.28;0.88;;;14.10;64.10;;;;;;5051477;28;20033;-76
2021/03/13 05:47:09;;;;;;;6.10;0.85;;;14.10;64.10;;;;;;5051482;28;20029;-76
2021/03/13 05:49:40;;;;;;;4.68;0.82;;;14.00;64.20;;;;;;5051292;28;20037;-76
2021/03/13 05:52:07;;;;;;;5.40;0.80;;;14.00;64.20;;;;;;5051450;28;20020;-76
2021/03/13 05:54:34;;;;;;;4.78;1.02;;;14.00;64.30;;;;;;5051319;28;20052;-77
2021/03/13 05:57:07;;;;;;;4.25;0.75;;;14.00;64.40;;;;;;5051442;28;20021;-76
2021/03/13 05:59:34;;;;;;;4.95;1.25;;;14.00;64.10;;;;;;5051091;28;20025;-76
2021/03/13 06:02:05;;;;;;;3.78;1.00;;;13.90;64.30;;;;;;5050070;28;20116;-75
2021/03/13 06:04:31;;;;;;;3.85;0.70;;;14.00;64.30;;;;;;5013359;28;20378;-76
2021/03/13 06:06:58;;;;;;;3.25;0.90;;;13.90;64.10;;;;;;5013831;28;20120;-76
2021/03/13 06:09:24;;;;;;;2.78;0.70;;;13.90;64.20;;;;;;5031539;28;20029;-75
2021/03/13 06:11:52;;;;;;;4.22;0.80;;;13.90;64.10;;;;;;5031161;28;20392;-75
2021/03/13 06:14:17;;;;;;;3.22;0.85;;;13.90;64.20;;;;;;5031087;28;20416;-75
2021/03/13 06:16:43;;;;;;;3.50;0.68;;;13.90;64.20;;;;;;5043451;28;20018;-75
2021/03/13 06:19:09;;;;;;;4.65;0.68;;;13.90;64.20;;;;;;5051121;28;20032;-75
2021/03/13 06:21:36;;;;;;;2.70;0.50;;;13.80;64.20;;;;;;5052497;28;20036;-75
2021/03/13 06:24:03;;;;;;;3.60;0.70;;;13.90;64.30;;;;;;5054527;28;20064;-75
2021/03/13 06:26:50;;;;;;;5.25;0.77;;;13.80;64.30;;;;;;5054430;28;20036;-75
2021/03/13 06:29:15;;;;;;;2.30;0.50;;;13.90;64.20;;;;;;5054523;28;20032;-75
2021/03/13 06:31:41;;;;;;;2.95;0.73;;;13.80;63.90;;;;;;5054729;28;20021;-75
2021/03/13 06:34:07;;;;;;;2.88;0.90;;;13.80;63.90;;;;;;5054661;28;20029;-75
2021/03/13 06:36:33;;;;;;;3.22;0.70;;;13.80;63.90;;;;;;5054636;28;20052;-75
2021/03/13 06:38:58;;;;;;;3.00;0.80;;;13.80;63.90;;;;;;5054564;28;20447;-75
2021/03/13 06:41:24;;;;;;;3.83;0.70;;;13.80;63.90;;;;;;5054816;28;20052;-75
2021/03/13 06:43:52;;;;;;;6.00;1.10;;;13.80;63.90;;;;;;5054169;28;20029;-76
2021/03/13 06:46:20;;;;;;;5.03;0.80;;;13.80;63.70;;;;;;5054385;28;20075;-75
2021/03/13 06:48:50;;;;;;;3.45;0.75;;;13.80;63.80;;;;;;5054163;28;20052;-76
2021/03/13 06:51:37;;;;;;;2.95;0.70;;;13.80;63.70;;;;;;5054617;28;20074;-76
2021/03/13 06:54:18;;;;;;;3.03;0.80;;;13.80;63.70;;;;;;5054009;28;20032;-77
2021/03/13 06:56:46;;;;;;;5.55;0.93;;;13.80;63.70;;;;;;5053958;28;20071;-75
2021/03/13 06:59:24;;;;;;;2.88;0.60;;;13.80;63.90;;;;;;5054124;28;20374;-77
2021/03/13 07:02:10;;;;;;;4.32;1.08;;;13.80;63.80;;;;;;5054257;28;20412;-76
2021/03/13 07:04:44;;;;;;;5.07;1.05;;;13.80;64.00;;;;;;5054106;28;20036;-76
2021/03/13 07:07:11;;;;;;;4.57;1.08;;;13.70;64.00;;;;;;5054080;28;20028;-76
2021/03/13 07:10:24;;;;;;;5.18;0.93;;;13.70;63.90;;;;;;5053870;28;20495;-76
2021/03/13 07:12:50;;;;;;;5.05;0.98;;;13.70;64.00;;;;;;4972652;28;20035;-76
2021/03/13 07:15:25;;;;;;;5.53;1.45;;;13.70;64.00;;;;;;4973105;28;20054;-75
2021/03/13 07:17:58;;;;;;;7.47;1.13;;;13.70;63.90;;;;;;5020585;28;20552;-76
2021/03/13 07:20:34;;;;;;;5.97;1.30;;;13.70;63.90;;;;;;5053770;28;20031;-75
2021/03/13 07:23:04;;;;;;;;;;;13.70;63.80;;;;;;5054619;28;20086;-76
2021/03/13 07:25:31;;;;;;;3.40;0.85;;;13.70;63.80;;;;;;5053033;28;19917;-76
2021/03/13 07:28:00;;;;;;;5.90;1.15;;;13.70;63.80;;;;;;5053499;28;20025;-76
2021/03/13 07:30:28;;;;;;;3.78;0.90;;;13.60;63.90;;;;;;5053747;28;20078;-75
2021/03/13 07:33:08;;;;;;;5.72;1.15;;;13.60;63.80;;;;;;5052586;28;20045;-76
2021/03/13 07:35:36;;;;;;;4.88;1.48;;;13.60;63.70;;;;;;5053484;28;20029;-76
2021/03/13 07:38:04;;;;;;;7.70;1.40;;;13.60;63.70;;;;;;5053397;28;20402;-75
2021/03/13 07:40:32;;;;;;;6.72;1.08;;;13.60;63.70;;;;;;5053658;28;20032;-75
2021/03/13 07:43:00;;;;;;;8.05;1.52;;;13.60;63.60;;;;;;5053603;28;20504;-75
2021/03/13 07:45:26;;;;;;;9.10;2.03;;;13.60;63.60;;;;;;5053167;28;20029;-76
2021/03/13 07:47:56;;;;;;;4.53;1.42;;;13.60;63.50;;;;;;5053207;28;20108;-76
2021/03/13 07:50:21;;;;;;;7.00;1.42;;;13.60;63.50;;;;;;5053324;28;20507;-75
2021/03/13 07:52:50;;;;;;;5.57;1.60;;;13.60;63.40;;;;;;5053138;28;20029;-75
2021/03/13 07:55:18;;;;;;;5.60;1.15;;;13.60;63.30;;;;;;5053098;28;20036;-75
2021/03/13 07:57:45;;;;;;;8.13;1.90;;;13.60;63.40;;;;;;5053198;28;20051;-76
2021/03/13 08:00:11;;;;;;;5.90;1.48;;;13.60;63.40;;;;;;5053090;28;20025;-75
2021/03/13 08:02:39;;;;;;;6.70;1.63;;;13.60;63.30;;;;;;5053158;28;20020;-75
2021/03/13 08:05:18;;;;;;;5.40;1.70;;;13.60;63.30;;;;;;5052659;28;20090;-75
2021/03/13 08:08:03;;;;;;;7.80;1.65;;;13.60;63.30;;;;;;5052245;28;20225;-75
2021/03/13 08:10:50;;;;;;;8.20;1.55;;;13.60;63.40;;;;;;5053094;28;20017;-75
2021/03/13 08:13:27;;;;;;;8.85;1.80;;;13.60;63.40;;;;;;5052789;28;20031;-75
2021/03/13 08:16:18;;;;;;;10.27;2.13;;;13.60;63.30;;;;;;5050999;28;20041;-75
2021/03/13 08:18:50;;;;;;;9.88;2.30;;;13.50;63.50;;;;;;5054561;28;20397;-75
2021/03/13 08:21:22;;;;;;;9.45;2.00;;;13.50;63.50;;;;;;5052177;28;20503;-75
2021/03/13 08:23:49;;;;;;;9.68;1.95;;;13.50;63.50;;;;;;5052074;28;20114;-74
2021/03/13 08:26:17;;;;;;;7.70;1.70;;;13.50;63.60;;;;;;5051087;28;20519;-74
2021/03/13 08:28:45;;;;;;;8.02;1.67;;;13.50;63.50;;;;;;5051809;28;20025;-74
2021/03/13 08:31:25;;;;;;;7.78;2.13;;;13.50;63.50;;;;;;5052349;28;20125;-75
2021/03/13 08:34:01;;;;;;;9.85;1.80;;;13.50;63.70;;;;;;5052130;28;20028;-75
2021/03/13 08:36:28;;;;;;;;;;;13.50;63.60;;;;;;5052512;28;20029;-74
2021/03/13 08:39:12;;;;;;;12.45;2.03;;;13.50;63.60;;;;;;5052336;28;20403;-75
2021/03/13 08:41:43;;;;;;;8.38;1.73;;;13.60;63.10;;;;;;5052452;28;20060;-75
2021/03/13 08:44:37;;;;;;;7.15;1.65;;;13.90;62.60;;;;;;5051443;28;20458;-75
2021/03/13 08:47:11;;;;;;;12.52;2.90;;;14.10;62.20;;;;;;5052250;28;20112;-73
2021/03/13 08:49:41;;;;;;;6.32;1.65;;;14.30;61.60;;;;;;5052105;28;20447;-74
2021/03/13 08:52:10;;;;;;;5.55;1.65;;;14.60;61.30;;;;;;5051539;28;20496;-76
2021/03/13 08:54:41;;;;;;;11.23;1.70;;;14.70;61.00;;;;;;5052166;28;20025;-76
2021/03/13 08:57:18;;;;;;;8.75;1.98;;;14.90;60.90;;;;;;5051594;28;20025;-74
2021/03/13 09:00:00;;;;;;;7.95;1.70;;;15.40;60.00;;;;;;5052023;28;20038;-74
2021/03/13 09:02:28;;;;;;;7.32;1.80;;;15.80;60.10;;;;;;5047500;28;20056;-75
2021/03/13 09:05:14;;;;;;;9.05;1.88;;;16.00;59.30;;;;;;5051960;28;20033;-75
2021/03/13 09:07:44;;;;;;;8.48;1.42;;;16.10;59.20;;;;;;5051624;28;20021;-74
2021/03/13 09:10:10;;;;;;;7.90;2.00;;;16.20;59.30;;;;;;5051766;28;20435;-75
2021/03/13 09:12:38;;;;;;;12.82;2.35;;;16.40;59.40;;;;;;5047009;28;20033;-77
2021/03/13 09:15:07;;;;;;;14.07;2.60;;;16.50;59.40;;;;;;5039460;28;20085;-76
2021/03/13 09:17:34;;;;;;;8.48;2.13;;;16.50;59.70;;;;;;5052175;28;20036;-76
2021/03/13 09:20:04;;;;;;;10.73;3.03;;;16.50;60.00;;;;;;5043858;28;20013;-75
2021/03/13 09:22:30;;;;;;;13.90;2.33;;;16.50;60.20;;;;;;5049656;28;20040;-76
2021/03/13 09:24:59;;;;;;;11.50;1.92;;;16.60;60.60;;;;;;5050532;28;20480;-76
2021/03/13 09:27:27;;;;;;;12.88;2.40;;;16.60;60.20;;;;;;5050599;28;20021;-75
2021/03/13 09:29:54;;;;;;;11.45;3.22;;;16.80;60.10;;;;;;5050167;28;20029;-75
2021/03/13 09:32:21;;;;;;;13.90;3.95;;;17.00;59.70;;;;;;5050335;28;20025;-76
2021/03/13 09:34:48;;;;;;;14.13;4.00;;;17.10;59.70;;;;;;5049869;28;20045;-76
2021/03/13 09:37:25;;;;;;;14.00;4.03;;;17.20;59.80;;;;;;5044586;28;20053;-77
2021/03/13 09:39:53;;;;;;;12.27;3.45;;;17.40;59.60;;;;;;5050294;28;20115;-77
2021/03/13 09:42:24;;;;;;;11.57;2.90;;;17.40;60.00;;;;;;5050532;28;20082;-77
2021/03/13 09:45:02;;;;;;;12.45;2.80;;;17.40;59.80;;;;;;5049715;28;20120;-77
2021/03/13 09:47:35;;;;;;;12.10;3.40;;;17.40;59.80;;;;;;5050522;28;20086;-77
2021/03/13 09:50:07;;;;;;;12.80;3.03;;;17.50;59.70;;;;;;5050100;28;20041;-76
2021/03/13 09:52:35;;;;;;;11.30;3.08;;;17.60;59.60;;;;;;5050596;28;20098;-76
2021/03/13 09:55:06;;;;;;;9.65;2.83;;;17.70;59.30;;;;;;5050167;28;20049;-77
2021/03/13 09:57:32;;;;;;;13.05;2.95;;;17.90;58.70;;;;;;5053203;28;20025;-77
2021/03/13 09:59:58;;;;;;;14.32;3.40;;;18.10;58.00;;;;;;5053812;28;20362;-76
2021/03/13 10:02:24;;;;;;;12.40;2.92;;;18.20;58.00;;;;;;5053990;28;20408;-79
2021/03/13 10:04:52;;;;;;;14.55;3.67;;;18.20;57.80;;;;;;5048327;28;20510;-77
2021/03/13 10:07:19;;;;;;;10.15;2.92;;;18.00;58.00;;;;;;5054304;28;20025;-77
2021/03/13 10:09:59;;;;;;;11.70;2.55;;;17.90;58.20;;;;;;5054014;28;20041;-79
2021/03/13 10:12:31;;;;;;;11.75;2.55;;;17.90;58.30;;;;;;5053161;28;20064;-77
2021/03/13 10:15:10;;;;;;;11.48;2.92;;;18.00;58.00;;;;;;5051718;28;20091;-77
2021/03/13 10:18:04;;;;;;;16.13;3.00;;;18.10;57.90;;;;;;5054160;28;20020;-77
2021/03/13 10:20:35;;;;;;;10.40;2.58;;;18.10;57.90;;;;;;5054164;28;20102;-77
2021/03/13 10:23:09;;;;;;;11.55;2.65;;;18.10;57.80;;;;;;5053881;28;20025;-77
2021/03/13 10:25:36;;;;;;;12.85;3.28;;;18.10;57.30;;;;;;5053787;28;20389;-77
2021/03/13 10:28:10;;;;;;;10.65;2.83;;;18.10;57.30;;;;;;5052759;28;20025;-77
2021/03/13 10:30:38;;;;;;;11.95;3.13;;;18.10;57.30;;;;;;5042687;28;20029;-77
2021/03/13 10:33:04;;;;;;;11.23;3.03;;;18.10;57.10;;;;;;5053899;28;20362;-78
2021/03/13 10:35:31;;;;;;;16.33;3.95;;;18.10;56.90;;;;;;5053702;28;20029;-75
2021/03/13 10:38:00;;;;;;;11.00;3.05;;;18.10;56.70;;;;;;5053648;28;20021;-76
2021/03/13 10:40:44;;;;;;;12.10;3.45;;;18.10;56.60;;;;;;5052419;28;20071;-76
2021/03/13 10:43:12;;;;;;;11.38;2.67;;;18.10;56.50;;;;;;5053328;28;20104;-77
2021/03/13 10:45:39;;;;;;;8.85;2.53;;;18.10;56.50;;;;;;5053109;28;20564;-77
2021/03/13 10:48:07;;;;;;;9.35;2.58;;;18.10;56.30;;;;;;5053650;28;20032;-78
2021/03/13 10:50:35;;;;;;;9.68;2.60;;;18.10;56.30;;;;;;5053703;28;20032;-78
2021/03/13 10:53:40;;;;;;;9.52;2.60;;;18.10;56.20;;;;;;5052938;28;20024;-77
2021/03/13 10:56:07;;;;;;;9.70;2.40;;;18.30;56.00;;;;;;5053531;28;20131;-77
2021/03/13 10:58:38;;;;;;;9.35;2.50;;;18.40;55.50;;;;;;5052894;28;20096;-78
2021/03/13 11:01:07;;;;;;;8.50;3.00;;;18.50;55.30;;;;;;5053684;28;20020;-75
2021/03/13 11:03:33;;;;;;;9.07;2.33;;;18.60;54.90;;;;;;5053186;28;20025;-78
2021/03/13 11:05:59;;;;;;;9.75;2.50;;;18.70;54.70;;;;;;5051985;28;20037;-76
2021/03/13 11:08:26;;;;;;;10.15;3.22;;;18.80;54.50;;;;;;5053293;28;20078;-85
2021/03/13 11:10:53;;;;;;;13.82;2.63;;;18.80;54.30;;;;;;5053722;28;20025;-79
2021/03/13 11:13:19;;;;;;;10.38;2.92;;;18.90;54.20;;;;;;5052898;28;20029;-79
2021/03/13 11:15:46;;;;;;;9.88;2.75;;;19.00;54.30;;;;;;5053562;28;20029;-81
2021/03/13 11:18:12;;;;;;;9.10;2.70;;;19.00;54.20;;;;;;5053946;28;20032;-79
2021/03/13 11:20:38;;;;;;;10.98;2.95;;;19.00;54.20;;;;;;5053909;28;20020;-81
2021/03/13 11:23:04;;;;;;;9.02;2.58;;;19.00;54.20;;;;;;5053970;28;20074;-78
2021/03/13 11:25:30;;;;;;;12.25;3.30;;;19.00;53.90;;;;;;5053710;28;20132;-79
2021/03/13 11:27:56;;;;;;;6.95;1.90;;;19.10;54.00;;;;;;5053549;28;20524;-77
2021/03/13 11:30:23;;;;;;;10.40;2.25;;;19.00;53.60;;;;;;5053499;28;20025;-81
2021/03/13 11:32:49;;;;;;;9.00;2.58;;;19.00;53.60;;;;;;5052849;28;20036;-81
2021/03/13 11:35:18;;;;;;;9.25;2.60;;;18.90;53.70;;;;;;5052641;28;20036;-81
2021/03/13 11:37:45;;;;;;;12.30;2.40;;;18.90;53.90;;;;;;5053178;28;20029;-80
2021/03/13 11:40:11;;;;;;;10.85;2.25;;;19.10;53.60;;;;;;5052641;28;20074;-81
2021/03/13 11:42:37;;;;;;;9.30;2.47;;;19.20;53.50;;;;;;5052692;28;20507;-80
2021/03/13 11:45:05;;;;;;;8.95;2.28;;;19.30;53.50;;;;;;5052848;28;20471;-79
2021/03/13 11:47:31;;;;;;;7.03;2.03;;;19.30;53.30;;;;;;5052365;28;20078;-79
2021/03/13 11:49:57;;;;;;;10.05;2.75;;;19.40;53.10;;;;;;5052826;28;20040;-79
2021/03/13 11:52:22;;;;;;;10.82;2.70;;;19.50;53.20;;;;;;5053322;28;20447;-80
2021/03/13 11:54:49;;;;;;;6.32;2.17;;;19.60;52.80;;;;;;5052378;28;20554;-79
2021/03/13 11:57:20;;;;;;;8.23;2.00;;;19.70;52.70;;;;;;5052467;28;20017;-79
2021/03/13 11:59:46;;;;;;;9.48;2.00;;;19.70;52.40;;;;;;5052367;28;20433;-79
2021/03/13 12:02:13;;;;;;;9.80;2.25;;;19.70;52.30;;;;;;5052303;28;20035;-80
2021/03/13 12:04:39;;;;;;;9.80;2.78;;;19.70;52.40;;;;;;5038429;28;20040;-79
2021/03/13 12:07:05;;;;;;;8.77;2.17;;;19.70;52.40;;;;;;5052905;28;20021;-80
2021/03/13 12:09:31;;;;;;;7.47;2.10;;;19.80;52.60;;;;;;5052362;28;20031;-79
2021/03/13 12:11:57;;;;;;;11.30;2.35;;;19.70;52.50;;;;;;5051493;28;20052;-80
2021/03/13 12:14:23;;;;;;;8.18;2.30;;;19.70;52.70;;;;;;5052349;28;20079;-80
2021/03/13 12:16:48;;;;;;;7.15;2.25;;;19.70;52.60;;;;;;5052374;28;20536;-78
2021/03/13 12:19:14;;;;;;;7.75;2.20;;;19.80;52.60;;;;;;5050987;28;20037;-80
2021/03/13 12:21:40;;;;;;;9.48;2.67;;;19.90;52.30;;;;;;5052763;28;20048;-80
2021/03/13 12:24:07;;;;;;;7.18;2.22;;;20.20;52.20;;;;;;5051436;28;20128;-79
2021/03/13 12:26:33;;;;;;;9.63;2.28;;;20.20;51.80;;;;;;5051754;28;20025;-79
2021/03/13 12:28:59;;;;;;;8.60;2.03;;;20.20;51.70;;;;;;5052493;28;20025;-79
2021/03/13 12:31:24;;;;;;;8.38;2.33;;;20.50;51.50;;;;;;5051585;28;20036;-80
2021/03/13 12:33:50;;;;;;;6.45;1.98;;;20.60;50.90;;;;;;5052384;28;20025;-80
2021/03/13 12:36:16;;;;;;;10.00;2.50;;;20.90;50.80;;;;;;5052298;28;20028;-79
2021/03/13 12:38:42;;;;;;;9.10;2.28;;;21.20;50.50;;;;;;5052029;28;20029;-78
2021/03/13 12:41:07;;;;;;;8.13;2.10;;;21.60;49.80;;;;;;5052172;28;20066;-79
2021/03/13 12:43:34;;;;;;;8.88;2.17;;;21.20;49.70;;;;;;5052315;28;20048;-80
2021/03/13 12:46:00;;;;;;;12.90;2.38;;;22.90;48.40;;;;;;5051528;28;20025;-78
2021/03/13 12:48:27;;;;;;;9.02;1.98;;;22.00;48.10;;;;;;5051672;28;20044;-83
2021/03/13 12:50:53;;;;;;;7.78;2.03;;;21.60;48.60;;;;;;5051819;28;20029;-80
2021/03/13 12:53:19;;;;;;;8.35;2.38;;;22.10;49.30;;;;;;5052263;28;20021;-80
2021/03/13 12:55:45;;;;;;;11.18;2.38;;;21.90;48.10;;;;;;5050594;28;20036;-81